Terminal Aerodrome Forecast
Issued by NWS

Home | Current Version | Previous Version | Text Only | Print | Product List | Glossary On
Versions: 1 2 3 4 5 6 7 8 9 10 11 12 13 14 15 16 17 18 19 20 21 22 23
000
FTUS42 KMLB 030529
TAFLEE
TAF
KLEE 030529Z 0306/0406 00000KT 6SM BR SCT250
     FM030900 00000KT 1SM BR OVC002
      TEMPO 0310/0314 1/4SM FG VV001
     FM031500 05004KT P6SM SCT005
     FM031700 11008KT P6SM SCT035
     FM040000 12005KT P6SM FEW035 SCT250=

USA.gov is the U.S. government's official web portal to all federal, state and local government web resources and services.